Time;durP1;ratioP1;P1;durP2;ratioP2;P2;SDS_P1;SDS_P2;PMS_P1;PMS_P2;Temp;Humidity;BMP_temperature;BMP_pressure;BME280_temperature;BME280_humidity;BME280_pressure;Samples;Min_cycle;Max_cycle;Signal;HPM_P1;HPM_P2
2023/09/12 00:00:15;;;;;;;4.88;3.47;;;;;;;;;;5054444;28;20044;-74
2023/09/12 00:02:41;;;;;;;7.03;4.18;;;;;;;;;;5056291;28;20043;-74
2023/09/12 00:05:07;;;;;;;7.60;3.92;;;;;;;;;;5046065;28;20052;-75
2023/09/12 00:07:32;;;;;;;4.15;3.75;;;;;;;;;;5035148;28;20094;-76
2023/09/12 00:09:58;;;;;;;8.77;4.75;;;;;;;;;;5041786;28;20642;-75
2023/09/12 00:12:27;;;;;;;6.68;3.70;;;;;;;;;;5018049;28;20111;-76
2023/09/12 00:14:53;;;;;;;3.90;3.50;;;;;;;;;;5026051;28;20032;-76
2023/09/12 00:17:18;;;;;;;5.13;3.67;;;;;;;;;;5044811;28;20098;-75
2023/09/12 00:19:44;;;;;;;5.07;3.80;;;;;;;;;;5040786;28;20033;-75
2023/09/12 00:22:09;;;;;;;7.72;4.13;;;;;;;;;;5051590;28;20093;-74
2023/09/12 00:24:34;;;;;;;6.80;4.32;;;;;;;;;;5041984;28;20051;-75
2023/09/12 00:27:00;;;;;;;7.22;4.15;;;;;;;;;;5033335;28;20529;-75
2023/09/12 00:29:25;;;;;;;6.07;4.13;;;;;;;;;;5034659;28;20045;-74
2023/09/12 00:31:50;;;;;;;4.80;3.58;;;;;;;;;;5040358;28;20040;-74
2023/09/12 00:34:17;;;;;;;9.05;4.43;;;;;;;;;;5053261;28;20054;-75
2023/09/12 00:36:42;;;;;;;6.05;4.03;;;;;;;;;;5053306;28;20492;-75
2023/09/12 00:39:08;;;;;;;8.00;3.90;;;;;;;;;;5044387;28;20044;-75
2023/09/12 00:41:33;;;;;;;4.70;3.15;;;;;;;;;;5036366;28;20378;-76
2023/09/12 00:43:59;;;;;;;5.85;3.97;;;;;;;;;;5053625;28;20036;-75
2023/09/12 00:46:25;;;;;;;4.25;3.33;;;;;;;;;;5046348;28;20041;-75
2023/09/12 00:48:53;;;;;;;4.00;3.60;;;;;;;;;;5027833;28;20040;-76
2023/09/12 00:51:20;;;;;;;4.55;3.80;;;;;;;;;;5050323;28;20521;-75
2023/09/12 00:53:46;;;;;;;4.65;3.50;;;;;;;;;;5022720;28;20525;-75
2023/09/12 00:56:12;;;;;;;5.93;3.60;;;;;;;;;;5039591;28;20120;-75
2023/09/12 00:58:37;;;;;;;5.82;3.33;;;;;;;;;;5054018;28;20127;-75
2023/09/12 01:01:04;;;;;;;5.43;3.88;;;;;;;;;;5035883;28;20555;-75
2023/09/12 01:03:30;;;;;;;3.88;3.47;;;;;;;;;;5038226;28;20045;-75
2023/09/12 01:05:59;;;;;;;6.35;4.63;;;;;;;;;;5025129;28;20445;-76
2023/09/12 01:08:24;;;;;;;7.70;4.32;;;;;;;;;;5048896;28;20032;-76
2023/09/12 01:10:53;;;;;;;6.18;4.03;;;;;;;;;;5050860;28;20041;-75
2023/09/12 01:13:19;;;;;;;5.95;3.63;;;;;;;;;;5052022;28;20041;-75
2023/09/12 01:15:44;;;;;;;6.82;4.22;;;;;;;;;;5053044;28;20036;-75
2023/09/12 01:18:11;;;;;;;4.72;3.90;;;;;;;;;;5037285;28;20108;-74
2023/09/12 01:20:38;;;;;;;4.85;4.00;;;;;;;;;;5032506;28;20505;-74
2023/09/12 01:23:51;;;;;;;12.00;4.50;;;;;;;;;;5038186;28;20036;-74
2023/09/12 01:26:40;;;;;;;6.85;4.35;;;;;;;;;;4999240;28;20076;-75
2023/09/12 01:29:06;;;;;;;4.25;3.28;;;;;;;;;;5029699;28;20057;-75
2023/09/12 01:31:33;;;;;;;4.47;3.60;;;;;;;;;;5031850;28;20056;-76
2023/09/12 01:34:09;;;;;;;4.50;3.72;;;;;;;;;;5024962;28;20037;-75
2023/09/12 01:36:34;;;;;;;4.82;3.42;;;;;;;;;;5024472;28;20064;-75
2023/09/12 01:38:59;;;;;;;4.55;3.58;;;;;;;;;;5020393;28;20045;-76
2023/09/12 01:41:26;;;;;;;5.68;4.00;;;;;;;;;;5035840;28;20499;-74
2023/09/12 01:43:52;;;;;;;7.10;3.90;;;;;;;;;;5030934;28;20687;-74
2023/09/12 01:46:18;;;;;;;4.00;3.60;;;;;;;;;;5026222;28;20060;-75
2023/09/12 01:48:44;;;;;;;5.32;3.65;;;;;;;;;;5025815;28;20037;-76
2023/09/12 01:51:10;;;;;;;8.82;4.63;;;;;;;;;;5028640;28;20784;-76
2023/09/12 01:53:36;;;;;;;9.27;4.80;;;;;;;;;;5031472;28;20044;-75
2023/09/12 01:56:01;;;;;;;10.88;4.97;;;;;;;;;;5019756;28;20045;-76
2023/09/12 01:58:28;;;;;;;4.70;3.58;;;;;;;;;;5020920;28;20079;-75
2023/09/12 02:00:54;;;;;;;5.57;3.90;;;;;;;;;;5046749;28;20589;-76
2023/09/12 02:03:19;;;;;;;6.28;3.90;;;;;;;;;;5042664;28;20041;-75
2023/09/12 02:05:45;;;;;;;7.00;4.18;;;;;;;;;;5065637;28;20119;-75
2023/09/12 02:08:10;;;;;;;4.03;3.63;;;;;;;;;;5067973;28;20400;-74
2023/09/12 02:11:03;;;;;;;7.70;4.00;;;;;;;;;;5034452;28;20037;-75
2023/09/12 02:13:28;;;;;;;6.50;3.67;;;;;;;;;;5043509;28;20029;-75
2023/09/12 02:16:00;;;;;;;5.43;3.53;;;;;;;;;;5050232;28;20039;-75
2023/09/12 02:18:26;;;;;;;5.10;3.90;;;;;;;;;;5070744;28;20451;-74
2023/09/12 02:20:51;;;;;;;7.22;4.10;;;;;;;;;;5047035;28;20075;-73
2023/09/12 02:23:17;;;;;;;4.72;3.75;;;;;;;;;;5050055;28;20397;-74
2023/09/12 02:25:42;;;;;;;4.18;3.78;;;;;;;;;;5038002;28;20029;-73
2023/09/12 02:28:07;;;;;;;5.78;4.00;;;;;;;;;;5024841;28;20037;-74
2023/09/12 02:30:33;;;;;;;5.90;3.80;;;;;;;;;;5019502;28;20600;-73
2023/09/12 02:32:58;;;;;;;6.93;3.85;;;;;;;;;;5023775;28;20108;-74
2023/09/12 02:35:24;;;;;;;6.95;3.65;;;;;;;;;;5027952;28;20123;-74
2023/09/12 02:37:49;;;;;;;6.90;3.90;;;;;;;;;;5021307;28;20465;-75
2023/09/12 02:40:14;;;;;;;8.38;4.25;;;;;;;;;;5041195;28;20043;-76
2023/09/12 02:42:40;;;;;;;8.27;4.90;;;;;;;;;;5030740;28;20441;-75
2023/09/12 02:45:06;;;;;;;8.65;4.30;;;;;;;;;;5037812;28;20055;-75
2023/09/12 02:47:31;;;;;;;7.22;4.10;;;;;;;;;;5042115;28;20110;-75
2023/09/12 02:49:56;;;;;;;4.93;4.00;;;;;;;;;;5021023;28;20087;-75
2023/09/12 02:52:22;;;;;;;4.28;3.88;;;;;;;;;;5021521;28;20067;-74
2023/09/12 02:54:47;;;;;;;7.97;4.60;;;;;;;;;;5018723;28;20450;-74
2023/09/12 02:57:13;;;;;;;4.40;3.60;;;;;;;;;;5025331;28;20522;-76
2023/09/12 02:59:38;;;;;;;5.53;3.97;;;;;;;;;;5025614;28;20037;-75
2023/09/12 03:02:03;;;;;;;6.05;3.83;;;;;;;;;;5037598;28;20033;-75
2023/09/12 03:04:29;;;;;;;6.50;4.22;;;;;;;;;;5026688;28;20127;-74
2023/09/12 03:06:55;;;;;;;7.07;4.45;;;;;;;;;;5036226;28;20036;-75
2023/09/12 03:13:14;;;;;;;4.78;3.75;;;;;;;;;;5021441;28;20383;-75
2023/09/12 03:15:39;;;;;;;5.47;4.15;;;;;;;;;;5022789;28;20052;-75
2023/09/12 03:18:09;;;;;;;8.23;5.07;;;;;;;;;;5019406;28;20046;-74
2023/09/12 03:20:38;;;;;;;7.10;4.53;;;;;;;;;;5033408;28;20445;-75
2023/09/12 03:23:03;;;;;;;5.22;3.83;;;;;;;;;;5019716;28;20045;-75
2023/09/12 03:25:28;;;;;;;4.00;3.45;;;;;;;;;;5023995;28;20056;-75
2023/09/12 03:27:54;;;;;;;5.63;4.32;;;;;;;;;;5013710;28;20048;-75
2023/09/12 03:30:20;;;;;;;6.47;3.28;;;;;;;;;;5020595;28;20048;-75
2023/09/12 03:32:45;;;;;;;5.80;4.15;;;;;;;;;;5031168;28;20033;-75
2023/09/12 03:35:11;;;;;;;4.07;3.47;;;;;;;;;;5023785;28;20643;-74
2023/09/12 03:37:40;;;;;;;5.05;3.50;;;;;;;;;;5024363;28;20064;-74
2023/09/12 03:40:06;;;;;;;4.00;3.38;;;;;;;;;;5017454;28;20044;-74
2023/09/12 03:42:32;;;;;;;4.60;3.90;;;;;;;;;;5036635;28;20080;-74
2023/09/12 03:44:57;;;;;;;5.32;3.65;;;;;;;;;;5030460;28;20060;-74
2023/09/12 03:47:23;;;;;;;3.97;3.30;;;;;;;;;;5022692;28;20449;-74
2023/09/12 03:49:48;;;;;;;4.72;4.20;;;;;;;;;;5014922;28;20077;-74
2023/09/12 03:52:13;;;;;;;4.55;3.53;;;;;;;;;;5025256;28;20038;-74
2023/09/12 03:54:39;;;;;;;10.07;4.60;;;;;;;;;;5033897;28;20083;-74
2023/09/12 03:57:04;;;;;;;5.70;4.13;;;;;;;;;;5028693;28;20539;-74
2023/09/12 03:59:30;;;;;;;6.63;5.00;;;;;;;;;;5035286;28;20474;-74
2023/09/12 04:01:55;;;;;;;9.80;4.57;;;;;;;;;;5034723;28;20044;-75
2023/09/12 04:04:21;;;;;;;6.72;4.28;;;;;;;;;;5061543;28;20123;-74
2023/09/12 04:06:46;;;;;;;4.53;3.45;;;;;;;;;;5055792;28;20417;-74
2023/09/12 04:09:12;;;;;;;4.68;3.55;;;;;;;;;;5059082;28;20598;-74
2023/09/12 04:11:37;;;;;;;5.97;3.70;;;;;;;;;;5061158;28;20033;-74
2023/09/12 04:14:03;;;;;;;4.78;3.85;;;;;;;;;;5068574;28;20070;-74
2023/09/12 04:16:28;;;;;;;6.65;4.35;;;;;;;;;;5068655;28;20037;-74
2023/09/12 04:18:53;;;;;;;5.82;3.78;;;;;;;;;;5062623;28;20028;-74
2023/09/12 04:21:19;;;;;;;5.60;3.65;;;;;;;;;;5059008;28;20585;-74
2023/09/12 04:23:45;;;;;;;5.50;3.55;;;;;;;;;;5031344;28;20060;-74
2023/09/12 04:26:10;;;;;;;7.38;4.00;;;;;;;;;;5004317;28;20037;-75
2023/09/12 04:28:36;;;;;;;5.78;4.00;;;;;;;;;;5033417;28;20033;-75
2023/09/12 04:31:03;;;;;;;4.40;3.50;;;;;;;;;;5032993;28;20069;-75
2023/09/12 04:33:29;;;;;;;8.20;4.10;;;;;;;;;;5005510;28;20036;-75
2023/09/12 04:35:57;;;;;;;6.63;4.45;;;;;;;;;;5033909;28;20704;-75
2023/09/12 04:38:24;;;;;;;6.93;3.65;;;;;;;;;;5027194;28;20049;-73
2023/09/12 04:41:06;;;;;;;7.45;4.07;;;;;;;;;;5004106;28;20041;-74
2023/09/12 04:43:32;;;;;;;6.28;4.90;;;;;;;;;;5024494;28;20044;-74
2023/09/12 04:45:57;;;;;;;5.43;4.18;;;;;;;;;;5019720;28;20048;-73
2023/09/12 04:48:23;;;;;;;7.35;3.75;;;;;;;;;;5041461;28;20040;-74
2023/09/12 04:50:48;;;;;;;3.50;3.20;;;;;;;;;;5031898;28;20577;-73
2023/09/12 04:53:14;;;;;;;4.65;3.55;;;;;;;;;;5032128;28;20041;-73
2023/09/12 04:55:40;;;;;;;4.68;3.38;;;;;;;;;;5029229;28;20036;-73
2023/09/12 04:58:05;;;;;;;5.07;3.50;;;;;;;;;;5033221;28;20040;-73
2023/09/12 05:00:32;;;;;;;3.58;2.95;;;;;;;;;;5013580;28;20876;-74
2023/09/12 05:02:57;;;;;;;6.18;3.70;;;;;;;;;;5018880;28;20033;-74
2023/09/12 05:05:22;;;;;;;7.38;4.05;;;;;;;;;;5023062;28;20514;-73
2023/09/12 05:07:48;;;;;;;4.80;3.17;;;;;;;;;;5029098;28;20060;-73
2023/09/12 05:10:13;;;;;;;9.27;4.90;;;;;;;;;;5026226;28;20037;-73
2023/09/12 05:12:39;;;;;;;7.95;4.28;;;;;;;;;;5031777;28;20619;-73
2023/09/12 05:15:05;;;;;;;6.15;3.80;;;;;;;;;;5013976;28;20040;-73
2023/09/12 05:17:30;;;;;;;4.97;4.10;;;;;;;;;;5020121;28;20057;-74
2023/09/12 05:19:55;;;;;;;9.75;5.43;;;;;;;;;;5028627;28;20112;-74
2023/09/12 05:22:21;;;;;;;9.05;5.07;;;;;;;;;;5011661;28;20080;-74
2023/09/12 05:24:46;;;;;;;8.65;4.95;;;;;;;;;;5021379;28;20107;-73
2023/09/12 05:27:12;;;;;;;9.15;5.63;;;;;;;;;;5018802;28;20164;-73
2023/09/12 05:29:37;;;;;;;13.52;6.60;;;;;;;;;;5022405;28;20041;-75
2023/09/12 05:32:04;;;;;;;6.90;4.43;;;;;;;;;;5017204;28;20037;-74
2023/09/12 05:34:29;;;;;;;8.38;4.90;;;;;;;;;;5027066;28;20053;-73
2023/09/12 05:36:56;;;;;;;10.80;5.10;;;;;;;;;;5008151;28;20045;-74
2023/09/12 05:39:21;;;;;;;11.85;6.00;;;;;;;;;;5009570;28;20116;-73
2023/09/12 05:41:47;;;;;;;8.02;4.32;;;;;;;;;;5013820;28;20509;-73
2023/09/12 05:44:12;;;;;;;4.15;3.75;;;;;;;;;;5004192;28;20052;-73
2023/09/12 05:46:38;;;;;;;5.60;3.95;;;;;;;;;;5027820;28;20531;-73
2023/09/12 05:49:03;;;;;;;5.40;3.60;;;;;;;;;;5018445;28;20636;-73
2023/09/12 05:51:29;;;;;;;4.97;4.03;;;;;;;;;;5043284;28;20799;-74
2023/09/12 05:53:55;;;;;;;11.80;5.63;;;;;;;;;;5065111;28;20064;-73
2023/09/12 05:56:20;;;;;;;5.32;4.18;;;;;;;;;;5073515;28;20044;-73
2023/09/12 05:58:46;;;;;;;10.32;4.80;;;;;;;;;;5057487;28;20074;-74
2023/09/12 06:01:11;;;;;;;5.10;4.00;;;;;;;;;;5047412;28;20055;-73
2023/09/12 06:03:37;;;;;;;5.55;3.67;;;;;;;;;;5064334;28;20494;-74
2023/09/12 06:06:02;;;;;;;7.38;5.20;;;;;;;;;;5046714;28;20040;-73
2023/09/12 06:08:28;;;;;;;7.65;4.60;;;;;;;;;;5060268;28;20460;-74
2023/09/12 06:10:54;;;;;;;14.00;6.78;;;;;;;;;;5062560;28;20070;-74
2023/09/12 06:13:20;;;;;;;9.48;5.35;;;;;;;;;;5017590;28;20053;-74
2023/09/12 06:15:46;;;;;;;10.75;6.60;;;;;;;;;;5067152;28;20036;-74
2023/09/12 06:18:11;;;;;;;9.90;5.95;;;;;;;;;;5046783;28;20146;-73
2023/09/12 06:20:38;;;;;;;6.63;4.05;;;;;;;;;;5024549;28;20645;-74
2023/09/12 06:23:03;;;;;;;17.30;7.05;;;;;;;;;;5017540;28;20112;-74
2023/09/12 06:25:29;;;;;;;12.45;6.85;;;;;;;;;;4996577;28;20120;-74
2023/09/12 06:27:55;;;;;;;11.77;6.63;;;;;;;;;;5021490;28;20029;-74
2023/09/12 06:30:20;;;;;;;10.20;6.13;;;;;;;;;;5022711;28;20052;-74
2023/09/12 06:32:45;;;;;;;13.70;6.90;;;;;;;;;;5011830;28;20040;-74
2023/09/12 06:35:11;;;;;;;9.00;6.25;;;;;;;;;;5032936;28;20676;-73
2023/09/12 06:37:39;;;;;;;12.93;6.15;;;;;;;;;;5017923;28;20084;-73
2023/09/12 06:40:06;;;;;;;10.90;6.55;;;;;;;;;;5015903;28;20112;-74
2023/09/12 06:42:32;;;;;;;12.18;7.65;;;;;;;;;;5027838;28;20060;-74
2023/09/12 06:44:57;;;;;;;11.10;7.72;;;;;;;;;;5014587;28;20034;-74
2023/09/12 06:47:22;;;;;;;10.20;6.60;;;;;;;;;;5012638;28;20037;-74
2023/09/12 06:49:48;;;;;;;12.60;6.93;;;;;;;;;;5013039;28;20095;-74
2023/09/12 06:52:13;;;;;;;12.20;7.22;;;;;;;;;;5027657;28;20041;-74
2023/09/12 06:54:38;;;;;;;14.60;7.38;;;;;;;;;;5020323;28;20029;-74
2023/09/12 06:57:04;;;;;;;16.02;7.43;;;;;;;;;;5033470;28;20064;-74
2023/09/12 06:59:29;;;;;;;13.65;8.02;;;;;;;;;;5019718;28;20169;-74
2023/09/12 07:01:55;;;;;;;16.63;7.38;;;;;;;;;;5037201;28;20056;-74
2023/09/12 07:04:21;;;;;;;12.57;7.88;;;;;;;;;;5025923;28;20076;-74
2023/09/12 07:06:46;;;;;;;10.55;7.20;;;;;;;;;;5013571;28;20549;-74
2023/09/12 07:09:14;;;;;;;14.40;7.05;;;;;;;;;;5019113;28;20037;-74
2023/09/12 07:11:40;;;;;;;10.27;7.15;;;;;;;;;;5017544;28;20091;-74
2023/09/12 07:14:06;;;;;;;15.13;7.70;;;;;;;;;;5003720;28;20033;-74
2023/09/12 07:16:32;;;;;;;10.77;7.13;;;;;;;;;;5012883;28;20057;-74
2023/09/12 07:18:57;;;;;;;12.07;7.93;;;;;;;;;;5013287;28;20033;-74
2023/09/12 07:21:23;;;;;;;17.23;8.02;;;;;;;;;;5002871;28;20681;-74
2023/09/12 07:23:48;;;;;;;11.57;7.57;;;;;;;;;;5018322;28;20046;-74
2023/09/12 07:26:14;;;;;;;11.18;7.47;;;;;;;;;;5031158;28;20037;-74
2023/09/12 07:28:40;;;;;;;14.43;8.18;;;;;;;;;;5015458;28;20046;-74
2023/09/12 07:31:05;;;;;;;11.32;6.53;;;;;;;;;;5011540;28;20041;-74
2023/09/12 07:33:32;;;;;;;14.20;7.80;;;;;;;;;;5017495;28;20128;-74
2023/09/12 07:35:59;;;;;;;13.98;7.88;;;;;;;;;;5014076;28;20034;-74
2023/09/12 07:38:25;;;;;;;15.30;7.93;;;;;;;;;;5029981;28;20053;-74
2023/09/12 07:40:50;;;;;;;10.77;7.05;;;;;;;;;;5053721;28;20037;-74
2023/09/12 07:43:16;;;;;;;11.23;7.13;;;;;;;;;;5034929;28;20063;-74
2023/09/12 07:45:41;;;;;;;8.90;6.45;;;;;;;;;;5036953;28;20089;-74
2023/09/12 07:48:10;;;;;;;13.68;7.45;;;;;;;;;;5009356;28;20122;-74
2023/09/12 07:50:38;;;;;;;10.25;5.53;;;;;;;;;;5001893;28;20081;-74
2023/09/12 07:53:07;;;;;;;8.82;6.68;;;;;;;;;;5004108;28;20104;-74
2023/09/12 07:55:45;;;;;;;15.50;8.00;;;;;;;;;;5028400;28;20128;-74
2023/09/12 07:58:11;;;;;;;14.82;7.53;;;;;;;;;;5016233;28;20430;-74
2023/09/12 08:00:36;;;;;;;12.25;7.53;;;;;;;;;;5012375;28;20037;-74
2023/09/12 08:03:02;;;;;;;13.88;7.53;;;;;;;;;;5025355;28;20425;-74
2023/09/12 08:05:27;;;;;;;14.63;7.88;;;;;;;;;;5065896;28;20066;-74
2023/09/12 08:07:53;;;;;;;9.73;7.00;;;;;;;;;;5064832;28;20035;-74
2023/09/12 08:10:18;;;;;;;11.35;5.28;;;;;;;;;;5047909;28;20028;-74
2023/09/12 08:12:44;;;;;;;12.88;6.90;;;;;;;;;;5055818;28;20139;-74
2023/09/12 08:15:09;;;;;;;14.05;6.10;;;;;;;;;;5056460;28;20032;-74
2023/09/12 08:17:35;;;;;;;6.25;4.50;;;;;;;;;;5033688;28;20662;-74
2023/09/12 08:20:00;;;;;;;9.73;4.97;;;;;;;;;;5052759;28;20167;-74
2023/09/12 08:22:26;;;;;;;10.63;5.70;;;;;;;;;;5052844;28;20073;-74
2023/09/12 08:24:51;;;;;;;10.18;6.60;;;;;;;;;;5058771;28;20044;-73
2023/09/12 08:27:16;;;;;;;11.18;6.97;;;;;;;;;;5060708;28;20108;-73
2023/09/12 08:29:44;;;;;;;9.35;6.65;;;;;;;;;;5055508;28;20489;-74
2023/09/12 08:32:09;;;;;;;11.07;6.80;;;;;;;;;;5041807;28;20040;-74
2023/09/12 08:34:35;;;;;;;9.93;7.00;;;;;;;;;;5053877;28;20039;-74
2023/09/12 08:37:00;;;;;;;9.25;5.82;;;;;;;;;;5058241;28;20803;-74
2023/09/12 08:39:27;;;;;;;9.00;6.32;;;;;;;;;;5045847;28;20028;-74
2023/09/12 08:41:53;;;;;;;11.13;6.50;;;;;;;;;;5036996;28;20489;-74
2023/09/12 08:44:20;;;;;;;12.55;6.78;;;;;;;;;;5049769;28;20177;-74
2023/09/12 08:46:46;;;;;;;9.05;5.57;;;;;;;;;;5043550;28;20032;-74
2023/09/12 08:49:12;;;;;;;8.20;5.75;;;;;;;;;;5058646;28;20071;-74
2023/09/12 08:51:40;;;;;;;10.57;6.07;;;;;;;;;;5045910;28;20051;-73
2023/09/12 08:54:07;;;;;;;12.88;6.15;;;;;;;;;;5043131;28;20030;-73
2023/09/12 08:56:35;;;;;;;8.30;5.93;;;;;;;;;;5055879;28;20505;-74
2023/09/12 08:59:02;;;;;;;10.10;5.70;;;;;;;;;;5050645;28;20109;-73
2023/09/12 09:01:30;;;;;;;8.68;5.93;;;;;;;;;;5058144;28;20079;-73
2023/09/12 09:03:56;;;;;;;8.85;5.70;;;;;;;;;;5056065;28;20040;-73
2023/09/12 09:06:23;;;;;;;9.32;5.63;;;;;;;;;;5038247;28;20636;-74
2023/09/12 09:08:50;;;;;;;9.80;5.72;;;;;;;;;;5054245;28;20032;-74
2023/09/12 09:11:16;;;;;;;9.27;6.05;;;;;;;;;;5043693;28;20065;-74
2023/09/12 09:13:41;;;;;;;10.30;5.95;;;;;;;;;;5045959;28;20039;-74
2023/09/12 09:16:19;;;;;;;8.57;5.88;;;;;;;;;;5049534;28;20037;-74
2023/09/12 09:19:09;;;;;;;7.93;6.00;;;;;;;;;;5042526;28;20067;-73
2023/09/12 09:21:35;;;;;;;7.72;5.18;;;;;;;;;;5042134;28;20033;-74
2023/09/12 09:24:11;;;;;;;10.13;5.38;;;;;;;;;;5033166;28;20563;-73
2023/09/12 09:26:50;;;;;;;9.93;5.63;;;;;;;;;;5043182;28;20040;-74
2023/09/12 09:29:19;;;;;;;7.35;5.10;;;;;;;;;;5049192;28;20421;-74
2023/09/12 09:31:47;;;;;;;9.10;5.55;;;;;;;;;;5049324;28;20087;-74
2023/09/12 09:34:17;;;;;;;10.80;5.57;;;;;;;;;;5032582;28;20065;-74
2023/09/12 09:36:43;;;;;;;8.45;5.75;;;;;;;;;;5044832;28;20049;-74
2023/09/12 09:39:10;;;;;;;5.38;4.38;;;;;;;;;;5054491;28;20039;-73
2023/09/12 09:41:37;;;;;;;8.02;5.90;;;;;;;;;;5050802;28;20454;-74
2023/09/12 09:44:05;;;;;;;11.63;6.20;;;;;;;;;;5056895;28;20106;-74
2023/09/12 09:46:31;;;;;;;10.00;6.15;;;;;;;;;;5064075;28;20075;-74
2023/09/12 09:48:58;;;;;;;7.68;5.85;;;;;;;;;;5029944;28;20037;-74
2023/09/12 09:51:25;;;;;;;12.70;6.40;;;;;;;;;;5056258;28;20523;-74
2023/09/12 09:53:57;;;;;;;8.68;5.97;;;;;;;;;;5053725;28;20033;-74
2023/09/12 09:56:23;;;;;;;8.60;5.15;;;;;;;;;;5027185;28;20051;-74
2023/09/12 09:58:51;;;;;;;9.57;5.22;;;;;;;;;;5060491;28;20032;-74
2023/09/12 10:01:22;;;;;;;9.65;4.95;;;;;;;;;;5053171;28;20051;-74
2023/09/12 10:03:49;;;;;;;8.25;4.72;;;;;;;;;;5031674;28;20042;-74
2023/09/12 10:06:17;;;;;;;6.25;4.80;;;;;;;;;;5049633;28;20028;-74
2023/09/12 10:08:45;;;;;;;6.57;4.60;;;;;;;;;;5034036;28;20123;-74
2023/09/12 10:11:14;;;;;;;4.35;3.95;;;;;;;;;;5044550;28;20512;-74
2023/09/12 10:13:43;;;;;;;5.57;4.40;;;;;;;;;;5054204;28;20070;-74
2023/09/12 10:16:10;;;;;;;6.55;4.03;;;;;;;;;;5038083;28;20527;-74
2023/09/12 10:18:44;;;;;;;6.55;4.97;;;;;;;;;;5055295;28;20132;-74
2023/09/12 10:21:16;;;;;;;5.63;4.45;;;;;;;;;;5043930;28;20041;-74
2023/09/12 10:23:44;;;;;;;5.53;4.30;;;;;;;;;;5043982;28;20122;-74
2023/09/12 10:26:13;;;;;;;6.25;4.20;;;;;;;;;;5049583;28;20039;-74
2023/09/12 10:28:41;;;;;;;7.50;4.32;;;;;;;;;;5051141;28;20060;-74
2023/09/12 10:31:08;;;;;;;7.18;3.90;;;;;;;;;;5055704;28;20684;-74
2023/09/12 10:33:35;;;;;;;6.93;3.80;;;;;;;;;;5051285;28;20945;-74
2023/09/12 10:36:03;;;;;;;4.50;3.60;;;;;;;;;;5048312;28;20170;-74
2023/09/12 10:38:31;;;;;;;7.93;3.92;;;;;;;;;;5060636;28;20036;-74
2023/09/12 10:40:59;;;;;;;5.95;3.80;;;;;;;;;;5051295;28;20028;-74
2023/09/12 10:43:26;;;;;;;5.78;3.60;;;;;;;;;;5061357;28;20484;-74
2023/09/12 10:45:52;;;;;;;4.18;3.78;;;;;;;;;;5054002;28;20123;-73
2023/09/12 10:48:17;;;;;;;3.90;3.53;;;;;;;;;;5058102;28;20087;-74
2023/09/12 10:50:44;;;;;;;5.47;3.90;;;;;;;;;;5058237;28;20032;-74
2023/09/12 10:53:15;;;;;;;5.38;3.88;;;;;;;;;;5061439;28;20081;-74
2023/09/12 10:55:41;;;;;;;4.50;3.50;;;;;;;;;;5035249;28;20033;-74
2023/09/12 10:58:13;;;;;;;8.18;3.97;;;;;;;;;;5046884;28;20035;-74
2023/09/12 11:00:39;;;;;;;6.00;4.13;;;;;;;;;;5055326;28;20115;-74
2023/09/12 11:03:26;;;;;;;9.80;4.53;;;;;;;;;;5058027;28;20099;-74
2023/09/12 11:05:53;;;;;;;5.57;4.10;;;;;;;;;;5042685;28;20041;-73
2023/09/12 11:08:19;;;;;;;8.45;3.88;;;;;;;;;;5054028;28;20025;-74
2023/09/12 11:10:44;;;;;;;3.75;3.15;;;;;;;;;;5055066;28;20045;-74
2023/09/12 11:13:18;;;;;;;4.15;3.30;;;;;;;;;;5060116;28;20598;-74
2023/09/12 11:16:20;;;;;;;5.63;3.92;;;;;;;;;;5055577;28;20036;-74
2023/09/12 11:19:16;;;;;;;6.43;4.30;;;;;;;;;;5021837;28;20065;-73
2023/09/12 11:21:52;;;;;;;4.70;3.58;;;;;;;;;;5035307;28;20379;-74
2023/09/12 11:24:19;;;;;;;4.45;3.90;;;;;;;;;;5037791;28;20025;-74
2023/09/12 11:27:00;;;;;;;7.28;4.10;;;;;;;;;;5028543;28;20044;-74
2023/09/12 11:29:38;;;;;;;5.57;4.53;;;;;;;;;;5041064;28;20063;-74
2023/09/12 11:32:05;;;;;;;5.25;3.35;;;;;;;;;;5055533;28;20052;-74
2023/09/12 11:34:37;;;;;;;8.48;4.30;;;;;;;;;;5054244;28;20036;-74
2023/09/12 11:37:04;;;;;;;8.05;4.22;;;;;;;;;;5041830;28;20047;-74
2023/09/12 11:39:32;;;;;;;5.70;3.92;;;;;;;;;;5017789;28;20463;-74
2023/09/12 11:41:59;;;;;;;5.47;3.72;;;;;;;;;;5036737;28;20044;-74
2023/09/12 11:44:26;;;;;;;7.68;4.80;;;;;;;;;;5056874;28;20040;-74
2023/09/12 11:46:52;;;;;;;7.20;4.35;;;;;;;;;;5054062;28;20047;-75
2023/09/12 11:49:19;;;;;;;4.28;3.88;;;;;;;;;;5054926;28;20055;-74
2023/09/12 11:51:51;;;;;;;5.13;3.53;;;;;;;;;;5054214;28;20131;-74
2023/09/12 11:54:24;;;;;;;7.43;4.43;;;;;;;;;;5043333;28;20076;-74
2023/09/12 11:56:56;;;;;;;6.70;4.43;;;;;;;;;;5047287;28;20064;-74
2023/09/12 11:59:40;;;;;;;7.07;4.38;;;;;;;;;;5057028;28;20500;-74
2023/09/12 12:02:08;;;;;;;10.15;4.53;;;;;;;;;;5058505;28;20048;-74
2023/09/12 12:04:34;;;;;;;4.57;3.90;;;;;;;;;;5049150;28;20032;-74
2023/09/12 12:07:01;;;;;;;6.47;4.13;;;;;;;;;;5054629;28;20081;-74
2023/09/12 12:09:26;;;;;;;6.28;4.90;;;;;;;;;;5060329;28;20082;-74
2023/09/12 12:11:52;;;;;;;7.47;3.55;;;;;;;;;;5061640;28;20040;-74
2023/09/12 12:14:19;;;;;;;6.32;4.28;;;;;;;;;;5049860;28;20434;-74
2023/09/12 12:16:45;;;;;;;8.63;4.28;;;;;;;;;;5054910;28;20483;-74
2023/09/12 12:19:12;;;;;;;6.07;4.03;;;;;;;;;;5043424;28;20029;-74
2023/09/12 12:21:40;;;;;;;6.05;3.97;;;;;;;;;;5055069;28;20040;-74
2023/09/12 12:24:08;;;;;;;5.50;4.00;;;;;;;;;;5053612;28;20033;-74
2023/09/12 12:26:33;;;;;;;8.43;4.40;;;;;;;;;;5057290;28;20520;-74
2023/09/12 12:29:03;;;;;;;6.25;3.97;;;;;;;;;;5036829;28;20033;-74
2023/09/12 12:31:29;;;;;;;7.07;4.20;;;;;;;;;;5040606;28;20040;-74
2023/09/12 12:33:55;;;;;;;7.18;3.80;;;;;;;;;;5055660;28;20029;-74
2023/09/12 12:36:20;;;;;;;6.80;4.43;;;;;;;;;;5060884;28;20039;-74
2023/09/12 12:38:48;;;;;;;6.68;4.10;;;;;;;;;;5054407;28;20037;-75
2023/09/12 12:41:22;;;;;;;10.15;4.70;;;;;;;;;;5041814;28;20062;-74
2023/09/12 12:43:51;;;;;;;5.72;3.63;;;;;;;;;;5000303;28;20044;-74
2023/09/12 12:46:17;;;;;;;8.02;4.25;;;;;;;;;;5047896;28;20090;-74
2023/09/12 12:48:45;;;;;;;6.15;4.25;;;;;;;;;;5040277;28;20453;-74
2023/09/12 12:51:19;;;;;;;5.90;3.97;;;;;;;;;;5059079;28;20397;-74
2023/09/12 12:53:47;;;;;;;8.10;4.60;;;;;;;;;;5052471;28;20404;-75
2023/09/12 12:56:18;;;;;;;6.22;4.10;;;;;;;;;;5045809;28;20044;-74
2023/09/12 12:58:52;;;;;;;6.50;4.63;;;;;;;;;;5043244;28;20064;-74
2023/09/12 13:01:18;;;;;;;7.82;4.35;;;;;;;;;;5052754;28;20063;-75
2023/09/12 13:03:43;;;;;;;5.57;3.55;;;;;;;;;;5056004;28;20036;-75
2023/09/12 13:06:14;;;;;;;8.93;4.50;;;;;;;;;;5062560;28;20038;-74
2023/09/12 13:08:43;;;;;;;6.03;3.92;;;;;;;;;;5039311;28;20029;-75
2023/09/12 13:11:10;;;;;;;8.57;4.47;;;;;;;;;;5046278;28;20044;-74
2023/09/12 13:13:36;;;;;;;9.27;4.47;;;;;;;;;;5051446;28;20056;-74
2023/09/12 13:16:04;;;;;;;6.55;4.20;;;;;;;;;;5048358;28;20115;-74
2023/09/12 13:18:31;;;;;;;5.85;3.95;;;;;;;;;;5050704;28;20091;-75
2023/09/12 13:20:56;;;;;;;5.18;4.13;;;;;;;;;;5060523;28;20067;-74
2023/09/12 13:23:24;;;;;;;6.15;4.10;;;;;;;;;;5043646;28;20068;-74
2023/09/12 13:25:49;;;;;;;11.32;4.60;;;;;;;;;;5059108;28;20036;-75
2023/09/12 13:28:15;;;;;;;5.57;4.03;;;;;;;;;;5054467;28;20028;-74
2023/09/12 13:30:40;;;;;;;5.00;4.30;;;;;;;;;;5052765;28;20142;-74
2023/09/12 13:33:05;;;;;;;8.65;4.70;;;;;;;;;;5050291;28;20045;-74
2023/09/12 13:35:31;;;;;;;7.45;4.68;;;;;;;;;;5046939;28;20036;-74
2023/09/12 13:37:57;;;;;;;8.82;4.18;;;;;;;;;;5034387;28;20826;-74
2023/09/12 13:40:22;;;;;;;6.82;4.07;;;;;;;;;;5032426;28;20104;-74
2023/09/12 13:42:48;;;;;;;5.53;3.80;;;;;;;;;;5016604;28;20072;-74
2023/09/12 13:45:13;;;;;;;5.88;3.80;;;;;;;;;;5041982;28;20039;-74
2023/09/12 13:47:38;;;;;;;7.90;4.28;;;;;;;;;;5051275;28;20059;-74
2023/09/12 13:50:05;;;;;;;5.85;3.75;;;;;;;;;;5054597;28;20034;-74
2023/09/12 13:52:30;;;;;;;7.00;3.72;;;;;;;;;;5040194;28;20110;-75
2023/09/12 13:54:56;;;;;;;4.78;3.50;;;;;;;;;;5047002;28;20463;-74
2023/09/12 13:57:21;;;;;;;5.53;3.65;;;;;;;;;;5056725;28;20060;-74
2023/09/12 13:59:46;;;;;;;8.35;3.50;;;;;;;;;;5061343;28;20123;-74
2023/09/12 14:02:12;;;;;;;6.72;3.40;;;;;;;;;;5052755;28;20036;-74
2023/09/12 14:04:38;;;;;;;8.50;3.30;;;;;;;;;;5048492;28;20038;-74
2023/09/12 14:07:03;;;;;;;5.50;3.20;;;;;;;;;;5052442;28;20032;-74
2023/09/12 14:09:29;;;;;;;5.93;3.50;;;;;;;;;;5035988;28;20036;-74
2023/09/12 14:11:54;;;;;;;6.20;3.38;;;;;;;;;;5049693;28;20055;-74
2023/09/12 14:14:19;;;;;;;6.35;3.33;;;;;;;;;;5052385;28;20043;-74
2023/09/12 14:16:45;;;;;;;5.03;3.42;;;;;;;;;;5051307;28;20090;-74
2023/09/12 14:19:11;;;;;;;4.60;3.13;;;;;;;;;;5027837;28;20048;-74
2023/09/12 14:21:37;;;;;;;7.28;3.03;;;;;;;;;;5037496;28;20037;-74
2023/09/12 14:24:02;;;;;;;5.65;3.28;;;;;;;;;;5034580;28;20148;-74
2023/09/12 14:26:28;;;;;;;7.95;3.33;;;;;;;;;;5057322;28;20045;-75
2023/09/12 14:28:55;;;;;;;6.85;4.00;;;;;;;;;;5056166;28;20044;-74
2023/09/12 14:31:22;;;;;;;8.73;3.83;;;;;;;;;;5058189;28;20111;-74
2023/09/12 14:33:47;;;;;;;6.40;3.40;;;;;;;;;;5056456;28;20085;-74
2023/09/12 14:36:13;;;;;;;4.30;3.05;;;;;;;;;;5042977;28;20028;-74
2023/09/12 14:38:38;;;;;;;6.60;3.22;;;;;;;;;;5053875;28;20051;-74
2023/09/12 14:41:04;;;;;;;7.63;3.25;;;;;;;;;;5064154;28;20103;-74
2023/09/12 14:43:29;;;;;;;8.35;3.90;;;;;;;;;;5061576;28;20040;-74